Time;durP1;ratioP1;P1;durP2;ratioP2;P2;SDS_P1;SDS_P2;PMS_P1;PMS_P2;Temp;Humidity;BMP_temperature;BMP_pressure;BME280_temperature;BME280_humidity;BME280_pressure;Samples;Min_cycle;Max_cycle;Signal;HPM_P1;HPM_P2
2023/10/01 00:00:01;;;;;;;2.42;2.35;;;;;;;;;;4149603;28;20069;-62
2023/10/01 00:02:03;;;;;;;2.57;2.37;;;;;;;;;;4164074;28;20084;-62
2023/10/01 00:04:06;;;;;;;3.00;2.67;;;;;;;;;;4165718;28;20291;-61
2023/10/01 00:06:08;;;;;;;2.22;2.10;;;;;;;;;;4165711;28;20140;-61
2023/10/01 00:08:12;;;;;;;2.43;2.33;;;;;;;;;;4165742;28;20055;-62
2023/10/01 00:10:14;;;;;;;1.80;1.55;;;;;;;;;;4158012;28;20034;-62
2023/10/01 00:12:16;;;;;;;2.22;2.13;;;;;;;;;;4133388;28;20039;-62
2023/10/01 00:14:20;;;;;;;;;;;;;;;;;;4133549;28;20414;-62
2023/10/01 00:16:29;;;;;;;2.70;2.60;;;;;;;;;;4133034;28;19921;-61
2023/10/01 00:18:30;;;;;;;2.20;2.10;;;;;;;;;;4159294;28;20080;-62
2023/10/01 00:20:33;;;;;;;5.67;2.60;;;;;;;;;;4165522;28;20080;-61
2023/10/01 00:22:37;;;;;;;3.35;3.25;;;;;;;;;;4165580;28;20049;-62
2023/10/01 00:24:38;;;;;;;2.30;2.20;;;;;;;;;;4165461;28;20095;-62
2023/10/01 00:26:40;;;;;;;2.60;2.50;;;;;;;;;;4165493;28;20075;-62
2023/10/01 00:28:41;;;;;;;3.00;2.80;;;;;;;;;;4157411;28;20126;-62
2023/10/01 00:30:43;;;;;;;3.10;2.83;;;;;;;;;;4148997;28;20152;-62
2023/10/01 00:32:45;;;;;;;2.70;2.60;;;;;;;;;;4148870;28;20277;-61
2023/10/01 00:34:47;;;;;;;3.03;2.88;;;;;;;;;;4149035;28;20116;-62
2023/10/01 00:36:49;;;;;;;2.97;2.80;;;;;;;;;;4148951;28;20070;-62
2023/10/01 00:38:50;;;;;;;2.45;2.38;;;;;;;;;;4148749;28;20046;-62
2023/10/01 00:40:53;;;;;;;2.50;2.50;;;;;;;;;;4148864;28;20100;-62
2023/10/01 00:42:54;;;;;;;3.28;2.97;;;;;;;;;;4148819;28;20116;-62
2023/10/01 00:44:57;;;;;;;2.75;2.55;;;;;;;;;;4148803;28;20046;-62
2023/10/01 00:46:59;;;;;;;2.97;2.88;;;;;;;;;;4148485;28;20445;-61
2023/10/01 00:49:02;;;;;;;3.97;2.65;;;;;;;;;;4148663;28;20526;-61
2023/10/01 00:51:06;;;;;;;2.67;2.58;;;;;;;;;;4148661;28;20038;-62
2023/10/01 00:53:09;;;;;;;4.03;2.70;;;;;;;;;;4148700;28;20490;-61
2023/10/01 00:55:13;;;;;;;2.20;2.10;;;;;;;;;;4148651;28;20034;-62
2023/10/01 00:57:15;;;;;;;5.45;3.08;;;;;;;;;;4142122;28;20070;-62
2023/10/01 00:59:17;;;;;;;2.70;2.70;;;;;;;;;;4131595;28;20206;-62
2023/10/01 01:01:19;;;;;;;3.17;3.07;;;;;;;;;;4132332;28;20062;-63
2023/10/01 01:03:22;;;;;;;2.22;2.03;;;;;;;;;;4132394;28;20046;-62
2023/10/01 01:05:34;;;;;;;2.60;2.50;;;;;;;;;;4132064;28;20047;-63
2023/10/01 01:07:40;;;;;;;3.35;3.25;;;;;;;;;;4132333;28;20053;-63
2023/10/01 01:09:42;;;;;;;2.83;2.72;;;;;;;;;;4132258;28;20049;-62
2023/10/01 01:11:46;;;;;;;2.72;2.63;;;;;;;;;;4132443;28;20053;-63
2023/10/01 01:13:49;;;;;;;4.00;2.50;;;;;;;;;;4132204;28;20631;-62
2023/10/01 01:15:52;;;;;;;3.10;2.63;;;;;;;;;;4132113;28;20088;-63
2023/10/01 01:17:59;;;;;;;2.00;2.00;;;;;;;;;;4148630;28;20140;-63
2023/10/01 01:20:03;;;;;;;3.15;2.88;;;;;;;;;;4164562;28;20046;-63
2023/10/01 01:22:09;;;;;;;5.00;2.78;;;;;;;;;;4164597;28;20154;-63
2023/10/01 01:24:11;;;;;;;2.97;2.85;;;;;;;;;;4162944;28;20045;-63
2023/10/01 01:26:13;;;;;;;3.17;3.08;;;;;;;;;;4148120;28;20295;-62
2023/10/01 01:28:24;;;;;;;3.67;3.47;;;;;;;;;;4148242;28;20072;-63
2023/10/01 01:30:29;;;;;;;4.93;4.72;;;;;;;;;;4148126;28;20288;-63
2023/10/01 01:32:32;;;;;;;4.05;4.00;;;;;;;;;;4148114;28;20038;-63
2023/10/01 01:34:37;;;;;;;4.20;4.10;;;;;;;;;;4148073;28;20525;-63
2023/10/01 01:36:39;;;;;;;3.80;3.50;;;;;;;;;;4148022;28;20525;-63
2023/10/01 01:39:26;;;;;;;3.10;3.00;;;;;;;;;;4147884;28;20042;-63
2023/10/01 01:41:28;;;;;;;3.50;3.40;;;;;;;;;;4097805;29;20099;-64
2023/10/01 01:43:31;;;;;;;3.95;3.63;;;;;;;;;;4097810;29;20138;-62
2023/10/01 01:45:38;;;;;;;3.60;3.40;;;;;;;;;;4097274;28;20135;-63
2023/10/01 01:47:40;;;;;;;5.53;2.97;;;;;;;;;;4097381;29;20039;-62
2023/10/01 01:49:43;;;;;;;3.50;3.40;;;;;;;;;;4097817;29;20052;-63
2023/10/01 01:51:59;;;;;;;3.60;3.40;;;;;;;;;;4097700;29;20043;-63
2023/10/01 01:54:03;;;;;;;3.53;3.28;;;;;;;;;;4097484;29;20051;-63
2023/10/01 01:56:11;;;;;;;4.63;4.30;;;;;;;;;;4097663;29;20130;-63
2023/10/01 01:58:15;;;;;;;4.78;4.43;;;;;;;;;;4097757;29;20047;-62
2023/10/01 02:00:17;;;;;;;5.65;5.53;;;;;;;;;;4097590;29;20051;-63
2023/10/01 02:02:19;;;;;;;5.28;5.18;;;;;;;;;;4097288;29;20751;-64
2023/10/01 02:04:22;;;;;;;3.78;3.67;;;;;;;;;;4097638;29;20051;-62
2023/10/01 02:06:27;;;;;;;3.72;3.58;;;;;;;;;;4081681;29;20043;-63
2023/10/01 02:08:44;;;;;;;2.97;2.97;;;;;;;;;;4097363;29;20130;-63
2023/10/01 02:10:45;;;;;;;4.72;2.25;;;;;;;;;;4097618;29;20082;-63
2023/10/01 02:12:54;;;;;;;3.17;2.53;;;;;;;;;;4097559;29;20109;-63
2023/10/01 02:14:56;;;;;;;2.42;2.33;;;;;;;;;;4103698;28;20112;-64
2023/10/01 02:17:04;;;;;;;3.13;3.03;;;;;;;;;;4132732;28;20066;-63
2023/10/01 02:19:21;;;;;;;2.15;2.05;;;;;;;;;;4163975;28;20704;-63
2023/10/01 02:21:42;;;;;;;3.05;2.65;;;;;;;;;;4154442;28;20045;-63
2023/10/01 02:23:44;;;;;;;2.75;2.55;;;;;;;;;;4147536;28;20111;-63
2023/10/01 02:25:49;;;;;;;3.13;3.10;;;;;;;;;;4147582;28;20153;-63
2023/10/01 02:28:06;;;;;;;5.05;3.28;;;;;;;;;;4147622;28;20391;-63
2023/10/01 02:30:16;;;;;;;3.00;2.97;;;;;;;;;;4147575;28;20054;-63
2023/10/01 02:32:18;;;;;;;2.60;2.58;;;;;;;;;;4147543;28;20042;-63
2023/10/01 02:34:20;;;;;;;6.22;2.88;;;;;;;;;;4147395;28;20129;-63
2023/10/01 02:36:23;;;;;;;2.00;2.00;;;;;;;;;;4147509;28;20549;-62
2023/10/01 02:38:39;;;;;;;2.72;2.63;;;;;;;;;;4147392;28;20467;-63
2023/10/01 02:40:44;;;;;;;2.88;2.78;;;;;;;;;;4147547;28;20037;-63
2023/10/01 02:42:49;;;;;;;2.42;2.33;;;;;;;;;;4147591;28;20066;-63
2023/10/01 02:44:53;;;;;;;1.80;1.60;;;;;;;;;;4147266;28;20508;-63
2023/10/01 02:46:58;;;;;;;2.20;2.17;;;;;;;;;;4146142;28;20038;-63
2023/10/01 02:49:04;;;;;;;2.95;2.85;;;;;;;;;;4147385;28;20046;-63
2023/10/01 02:51:15;;;;;;;2.45;2.30;;;;;;;;;;4163820;28;20056;-63
2023/10/01 02:53:20;;;;;;;2.28;2.17;;;;;;;;;;4163792;28;20072;-63
2023/10/01 02:55:26;;;;;;;2.92;2.83;;;;;;;;;;4164001;28;20104;-63
2023/10/01 02:57:33;;;;;;;2.67;2.47;;;;;;;;;;4166947;28;20052;-63
2023/10/01 02:59:36;;;;;;;3.83;3.67;;;;;;;;;;4149404;28;20046;-63
2023/10/01 03:01:39;;;;;;;4.50;4.22;;;;;;;;;;4133996;28;20086;-63
2023/10/01 03:03:41;;;;;;;3.35;3.25;;;;;;;;;;4134411;28;20124;-63
2023/10/01 03:05:46;;;;;;;3.97;3.78;;;;;;;;;;4134250;28;20060;-64
2023/10/01 03:07:50;;;;;;;6.30;4.88;;;;;;;;;;4149063;28;20089;-63
2023/10/01 03:10:00;;;;;;;4.60;4.50;;;;;;;;;;4143535;28;20079;-63
2023/10/01 03:14:26;;;;;;;5.97;5.72;;;;;;;;;;4166475;28;20065;-63
2023/10/01 03:16:42;;;;;;;6.35;5.78;;;;;;;;;;4166661;28;20045;-63
2023/10/01 03:18:46;;;;;;;6.35;6.15;;;;;;;;;;4163660;28;20045;-62
2023/10/01 03:22:53;;;;;;;9.73;9.40;;;;;;;;;;4166469;28;20044;-63
2023/10/01 03:24:58;;;;;;;7.95;7.75;;;;;;;;;;4166412;28;20041;-62
2023/10/01 03:27:19;;;;;;;8.45;8.35;;;;;;;;;;4166336;28;20095;-63
2023/10/01 03:29:34;;;;;;;8.20;8.00;;;;;;;;;;4166295;28;20048;-63
2023/10/01 03:31:37;;;;;;;9.70;9.27;;;;;;;;;;4166299;28;20049;-62
2023/10/01 03:33:39;;;;;;;9.27;9.18;;;;;;;;;;4166234;28;20045;-63
2023/10/01 03:35:47;;;;;;;10.23;10.13;;;;;;;;;;4166312;28;20061;-63
2023/10/01 03:38:09;;;;;;;10.10;10.00;;;;;;;;;;4166294;28;20124;-63
2023/10/01 03:42:18;;;;;;;9.90;9.57;;;;;;;;;;4149875;28;20064;-64
2023/10/01 03:46:46;;;;;;;10.60;10.38;;;;;;;;;;4143118;28;20499;-62
2023/10/01 03:49:00;;;;;;;11.23;10.80;;;;;;;;;;4149651;28;20038;-63
2023/10/01 03:51:04;;;;;;;10.57;10.32;;;;;;;;;;4149643;28;20502;-62
2023/10/01 03:53:11;;;;;;;;;;;;;;;;;;4150091;28;20096;-63
2023/10/01 03:55:28;;;;;;;9.13;9.02;;;;;;;;;;4149516;28;19928;-62
2023/10/01 03:57:30;;;;;;;10.43;9.85;;;;;;;;;;4149570;28;20046;-62
2023/10/01 03:59:32;;;;;;;10.50;10.18;;;;;;;;;;4149510;28;20168;-62
2023/10/01 04:01:58;;;;;;;;;;;;;;;;;;4149619;28;20066;-63
2023/10/01 04:04:00;;;;;;;9.90;9.70;;;;;;;;;;4149497;28;19929;-63
2023/10/01 04:06:05;;;;;;;9.50;9.30;;;;;;;;;;4149378;28;20048;-63
2023/10/01 04:08:11;;;;;;;9.40;9.30;;;;;;;;;;4148885;28;20053;-63
2023/10/01 04:10:21;;;;;;;10.43;10.23;;;;;;;;;;4149298;28;20130;-63
2023/10/01 04:12:37;;;;;;;10.75;10.55;;;;;;;;;;4149352;28;20100;-63
2023/10/01 04:14:39;;;;;;;11.38;11.20;;;;;;;;;;4149207;28;20556;-63
2023/10/01 04:16:46;;;;;;;11.52;11.40;;;;;;;;;;4149275;28;20073;-64
2023/10/01 04:18:48;;;;;;;11.70;11.27;;;;;;;;;;4149174;28;20053;-63
2023/10/01 04:23:04;;;;;;;11.18;10.98;;;;;;;;;;4149194;28;20045;-63
2023/10/01 04:25:12;;;;;;;10.75;10.65;;;;;;;;;;4149117;28;20104;-63
2023/10/01 04:27:23;;;;;;;9.93;9.82;;;;;;;;;;4149324;28;20117;-63
2023/10/01 04:29:44;;;;;;;10.02;9.93;;;;;;;;;;4149108;28;20387;-63
2023/10/01 04:31:49;;;;;;;10.77;10.55;;;;;;;;;;4148991;28;20442;-63
2023/10/01 04:33:51;;;;;;;11.85;11.63;;;;;;;;;;4149096;28;20111;-62
2023/10/01 04:35:55;;;;;;;9.83;9.63;;;;;;;;;;4148939;28;20069;-63
2023/10/01 04:37:57;;;;;;;13.77;13.15;;;;;;;;;;4148851;28;20776;-63
2023/10/01 04:39:58;;;;;;;13.73;13.52;;;;;;;;;;4148876;28;20045;-63
2023/10/01 04:42:00;;;;;;;13.77;13.57;;;;;;;;;;4154275;28;20115;-63
2023/10/01 04:44:08;;;;;;;12.55;12.25;;;;;;;;;;4165308;28;20046;-63
2023/10/01 04:46:09;;;;;;;13.65;13.32;;;;;;;;;;4163506;28;20045;-62
2023/10/01 04:48:24;;;;;;;13.47;13.27;;;;;;;;;;4148959;28;20064;-62
2023/10/01 04:50:31;;;;;;;14.60;13.98;;;;;;;;;;4141778;28;20064;-62
2023/10/01 04:52:32;;;;;;;13.82;13.63;;;;;;;;;;4144839;28;20064;-62
2023/10/01 04:54:37;;;;;;;14.90;14.50;;;;;;;;;;4148873;28;20372;-62
2023/10/01 04:56:39;;;;;;;15.02;14.82;;;;;;;;;;4148702;28;20042;-62
2023/10/01 04:58:41;;;;;;;13.43;13.20;;;;;;;;;;4148583;28;20041;-62
2023/10/01 05:00:45;;;;;;;15.50;14.70;;;;;;;;;;4148480;28;20044;-62
2023/10/01 05:02:48;;;;;;;15.25;14.98;;;;;;;;;;4147530;28;20046;-62
2023/10/01 05:04:51;;;;;;;;;;;;;;;;;;4149021;28;20509;-61
2023/10/01 05:07:04;;;;;;;;;;;;;;;;;;4149121;28;19928;-62
2023/10/01 05:09:08;;;;;;;15.23;14.95;;;;;;;;;;4147663;28;19971;-62
2023/10/01 05:11:13;;;;;;;14.73;14.13;;;;;;;;;;4142650;28;20046;-62
2023/10/01 05:13:15;;;;;;;14.27;14.07;;;;;;;;;;4148365;28;20069;-63
2023/10/01 05:15:24;;;;;;;13.95;13.75;;;;;;;;;;4150288;28;20061;-62
2023/10/01 05:17:30;;;;;;;13.48;13.38;;;;;;;;;;4160232;28;20034;-62
2023/10/01 05:19:32;;;;;;;13.85;13.65;;;;;;;;;;4147578;28;20042;-62
2023/10/01 05:21:36;;;;;;;13.65;13.55;;;;;;;;;;4147601;28;20498;-61
2023/10/01 05:23:39;;;;;;;14.32;14.02;;;;;;;;;;4136354;28;20100;-62
2023/10/01 05:25:45;;;;;;;13.15;12.85;;;;;;;;;;4138541;28;20069;-62
2023/10/01 05:27:47;;;;;;;12.80;12.23;;;;;;;;;;4148002;28;20048;-62
2023/10/01 05:29:49;;;;;;;14.43;14.13;;;;;;;;;;4146325;28;20077;-62
2023/10/01 05:31:51;;;;;;;15.80;15.43;;;;;;;;;;4143848;28;20037;-62
2023/10/01 05:33:53;;;;;;;14.45;14.35;;;;;;;;;;4143529;28;20046;-62
2023/10/01 05:35:57;;;;;;;12.85;12.43;;;;;;;;;;4141603;28;20042;-62
2023/10/01 05:38:01;;;;;;;12.70;12.50;;;;;;;;;;4140110;28;20073;-62
2023/10/01 05:40:04;;;;;;;14.15;14.00;;;;;;;;;;4142200;28;20080;-62
2023/10/01 05:42:14;;;;;;;13.88;13.38;;;;;;;;;;4145318;28;20132;-62
2023/10/01 05:44:18;;;;;;;13.27;13.13;;;;;;;;;;4143918;28;20045;-62
2023/10/01 05:46:22;;;;;;;11.85;11.55;;;;;;;;;;4139916;28;20548;-62
2023/10/01 05:48:24;;;;;;;12.65;12.45;;;;;;;;;;4137039;28;20618;-62
2023/10/01 05:50:29;;;;;;;12.93;12.30;;;;;;;;;;4146464;28;20033;-62
2023/10/01 05:52:31;;;;;;;12.25;12.10;;;;;;;;;;4139525;28;20034;-62
2023/10/01 05:54:34;;;;;;;11.80;11.45;;;;;;;;;;4139990;28;20121;-62
2023/10/01 05:56:39;;;;;;;11.75;11.45;;;;;;;;;;4134865;28;20402;-62
2023/10/01 05:58:44;;;;;;;11.05;10.95;;;;;;;;;;4143642;28;20092;-62
2023/10/01 06:01:21;;;;;;;11.75;11.65;;;;;;;;;;4147376;28;20042;-62
2023/10/01 06:03:18;;;;;;;10.52;10.32;;;;;;;;;;4139881;28;20056;-62
2023/10/01 06:05:25;;;;;;;10.68;10.30;;;;;;;;;;4147556;28;20771;-61
2023/10/01 06:07:26;;;;;;;9.65;9.00;;;;;;;;;;4147424;28;20453;-62
2023/10/01 06:09:33;;;;;;;8.07;7.97;;;;;;;;;;4147521;28;20041;-62
2023/10/01 06:12:10;;;;;;;8.93;8.82;;;;;;;;;;4147601;28;20093;-62
2023/10/01 06:14:02;;;;;;;9.30;9.05;;;;;;;;;;4142025;28;20096;-62
2023/10/01 06:16:16;;;;;;;10.00;9.40;;;;;;;;;;4145755;28;20034;-61
2023/10/01 06:18:18;;;;;;;9.70;9.32;;;;;;;;;;4149315;28;20592;-61
2023/10/01 06:20:26;;;;;;;18.65;17.95;;;;;;;;;;4139739;28;20498;-62
2023/10/01 06:22:30;;;;;;;16.15;15.48;;;;;;;;;;4142329;28;20037;-62
2023/10/01 06:24:33;;;;;;;13.15;12.95;;;;;;;;;;4139032;28;20049;-62
2023/10/01 06:26:42;;;;;;;10.75;10.60;;;;;;;;;;4147496;28;20042;-62
2023/10/01 06:28:45;;;;;;;10.05;9.85;;;;;;;;;;4147488;28;20490;-61
2023/10/01 06:30:48;;;;;;;9.40;9.20;;;;;;;;;;4147993;28;20073;-61
2023/10/01 06:32:51;;;;;;;10.77;10.48;;;;;;;;;;4147214;28;20161;-62
2023/10/01 06:34:57;;;;;;;13.45;12.85;;;;;;;;;;4151801;28;20048;-61
2023/10/01 06:37:00;;;;;;;13.50;13.18;;;;;;;;;;4143141;28;20077;-61
2023/10/01 06:39:06;;;;;;;11.75;11.38;;;;;;;;;;4152505;28;20417;-61
2023/10/01 06:41:13;;;;;;;10.48;10.38;;;;;;;;;;4153062;28;20042;-62
2023/10/01 06:43:15;;;;;;;9.70;9.60;;;;;;;;;;4150449;28;20038;-61
2023/10/01 06:45:17;;;;;;;11.20;11.07;;;;;;;;;;4153030;28;20604;-61
2023/10/01 06:47:22;;;;;;;10.13;10.03;;;;;;;;;;4152749;28;20133;-62
2023/10/01 06:49:24;;;;;;;10.93;10.73;;;;;;;;;;4151947;28;20034;-61
2023/10/01 06:51:26;;;;;;;10.52;10.35;;;;;;;;;;4147225;28;20062;-61
2023/10/01 06:53:45;;;;;;;12.50;11.88;;;;;;;;;;4146750;28;20109;-62
2023/10/01 06:55:47;;;;;;;9.63;9.52;;;;;;;;;;4145343;28;20033;-62
2023/10/01 06:57:50;;;;;;;9.10;8.68;;;;;;;;;;4141110;28;20043;-62
2023/10/01 06:59:53;;;;;;;6.90;6.80;;;;;;;;;;4152137;28;20054;-62
2023/10/01 07:01:56;;;;;;;6.30;6.20;;;;;;;;;;4144380;28;20042;-62
2023/10/01 07:03:58;;;;;;;5.55;5.45;;;;;;;;;;4150082;28;20050;-62
2023/10/01 07:06:04;;;;;;;5.90;5.78;;;;;;;;;;4146241;28;20053;-62
2023/10/01 07:08:06;;;;;;;18.98;17.00;;;;;;;;;;4150956;28;20045;-62
2023/10/01 07:10:11;;;;;;;22.38;19.50;;;;;;;;;;4142311;28;20042;-62
2023/10/01 07:12:17;;;;;;;50.70;36.15;;;;;;;;;;4136542;28;20053;-62
2023/10/01 07:14:30;;;;;;;55.65;36.10;;;;;;;;;;4155168;28;20045;-62
2023/10/01 07:16:35;;;;;;;33.08;23.63;;;;;;;;;;4168909;28;20122;-62
2023/10/01 07:18:38;;;;;;;43.78;28.90;;;;;;;;;;4157817;28;20525;-62
2023/10/01 07:20:44;;;;;;;22.23;16.20;;;;;;;;;;4143737;28;20046;-61
2023/10/01 07:22:46;;;;;;;18.90;15.18;;;;;;;;;;4152572;28;20293;-62
2023/10/01 07:24:48;;;;;;;9.77;8.70;;;;;;;;;;4152692;28;20042;-62
2023/10/01 07:26:50;;;;;;;19.10;6.47;;;;;;;;;;4151426;28;20525;-62
2023/10/01 07:28:59;;;;;;;5.18;4.75;;;;;;;;;;4147301;28;20133;-61
2023/10/01 07:31:07;;;;;;;7.70;6.45;;;;;;;;;;4149973;28;20045;-62
2023/10/01 07:33:09;;;;;;;5.95;3.67;;;;;;;;;;4147825;28;20054;-62
2023/10/01 07:35:13;;;;;;;3.65;3.40;;;;;;;;;;4150411;28;20188;-62
2023/10/01 07:37:31;;;;;;;5.05;3.65;;;;;;;;;;4149768;28;20046;-61
2023/10/01 07:39:36;;;;;;;5.32;3.75;;;;;;;;;;4145839;28;20506;-62
2023/10/01 07:41:39;;;;;;;2.28;2.17;;;;;;;;;;4149586;28;20096;-61
2023/10/01 07:43:42;;;;;;;2.65;1.60;;;;;;;;;;4145544;28;20461;-62
2023/10/01 07:45:55;;;;;;;1.80;1.70;;;;;;;;;;4144275;28;20052;-62
2023/10/01 07:47:57;;;;;;;2.00;1.60;;;;;;;;;;4143045;28;20097;-62
2023/10/01 07:50:03;;;;;;;4.30;2.67;;;;;;;;;;4148096;28;20492;-61
2023/10/01 07:52:05;;;;;;;6.47;1.95;;;;;;;;;;4143401;28;20125;-62
2023/10/01 07:54:10;;;;;;;2.97;1.40;;;;;;;;;;4140943;28;20038;-62
2023/10/01 07:56:15;;;;;;;2.00;1.73;;;;;;;;;;4144262;28;20039;-62
2023/10/01 07:58:23;;;;;;;1.60;1.45;;;;;;;;;;4145681;28;20497;-61
2023/10/01 08:00:26;;;;;;;1.00;1.00;;;;;;;;;;4143372;28;20125;-62
2023/10/01 08:02:28;;;;;;;2.47;1.00;;;;;;;;;;4149416;28;20108;-61
2023/10/01 08:06:50;;;;;;;1.30;1.20;;;;;;;;;;4147229;28;20888;-66
2023/10/01 08:08:57;;;;;;;3.22;1.27;;;;;;;;;;4143826;28;20044;-66
2023/10/01 08:11:01;;;;;;;1.10;1.10;;;;;;;;;;4143040;28;20037;-66
2023/10/01 08:13:06;;;;;;;1.85;1.10;;;;;;;;;;4141352;28;20042;-63
2023/10/01 08:17:32;;;;;;;1.20;1.20;;;;;;;;;;4149453;28;20125;-62
2023/10/01 08:19:44;;;;;;;1.30;1.20;;;;;;;;;;4149335;28;20445;-63
2023/10/01 08:21:50;;;;;;;1.30;1.30;;;;;;;;;;4149312;28;20050;-63
2023/10/01 08:23:54;;;;;;;1.10;1.10;;;;;;;;;;4147580;28;20109;-62
2023/10/01 08:25:57;;;;;;;1.17;1.17;;;;;;;;;;4144181;28;20512;-62
2023/10/01 08:30:18;;;;;;;1.00;1.00;;;;;;;;;;4147654;28;20544;-62
2023/10/01 08:32:22;;;;;;;3.05;0.90;;;;;;;;;;4139501;28;20054;-63
2023/10/01 08:34:24;;;;;;;3.45;0.90;;;;;;;;;;4143577;28;20038;-62
2023/10/01 08:36:26;;;;;;;0.90;0.90;;;;;;;;;;4149008;28;20030;-63
2023/10/01 08:39:19;;;;;;;0.90;0.90;;;;;;;;;;4148963;28;20034;-62
2023/10/01 08:40:54;;;;;;;1.27;1.10;;;;;;;;;;4143703;28;20304;-62
2023/10/01 08:42:58;;;;;;;1.95;0.90;;;;;;;;;;4148696;28;20044;-63
2023/10/01 08:45:04;;;;;;;1.08;1.00;;;;;;;;;;4148937;28;20497;-63
2023/10/01 08:47:21;;;;;;;2.47;1.00;;;;;;;;;;4148945;28;20048;-62
2023/10/01 08:49:24;;;;;;;1.10;1.10;;;;;;;;;;4148548;28;20524;-63
2023/10/01 08:51:25;;;;;;;6.10;3.15;;;;;;;;;;4148912;28;20482;-63
2023/10/01 08:53:36;;;;;;;3.85;2.83;;;;;;;;;;4147369;28;20049;-63
2023/10/01 08:57:53;;;;;;;4.88;4.47;;;;;;;;;;4134313;28;20049;-62
2023/10/01 08:59:54;;;;;;;1.70;1.00;;;;;;;;;;4148915;28;20054;-62
2023/10/01 09:01:59;;;;;;;28.40;12.73;;;;;;;;;;4148308;28;20518;-63
2023/10/01 09:04:29;;;;;;;2.25;2.08;;;;;;;;;;4148195;28;20042;-63
2023/10/01 09:06:25;;;;;;;1.02;1.02;;;;;;;;;;4147022;28;20065;-64
2023/10/01 09:08:31;;;;;;;0.90;0.90;;;;;;;;;;4144360;28;20100;-63
2023/10/01 09:10:38;;;;;;;1.15;0.98;;;;;;;;;;4148551;28;20045;-62
2023/10/01 09:12:46;;;;;;;0.70;0.70;;;;;;;;;;4148646;28;20041;-63
2023/10/01 09:14:47;;;;;;;0.70;0.70;;;;;;;;;;4161836;28;20033;-63
2023/10/01 09:16:58;;;;;;;0.73;0.73;;;;;;;;;;4149298;28;20398;-63
2023/10/01 09:22:04;;;;;;;1.03;0.80;;;;;;;;;;4148303;28;20111;-62
2023/10/01 09:23:56;;;;;;;0.80;0.80;;;;;;;;;;4137720;28;20054;-63
2023/10/01 09:26:00;;;;;;;;;;;;;;;;;;4148757;28;20132;-63
2023/10/01 09:28:19;;;;;;;1.45;0.88;;;;;;;;;;4146942;28;19921;-62
2023/10/01 09:30:27;;;;;;;1.05;0.90;;;;;;;;;;4144978;28;20045;-64
2023/10/01 09:32:50;;;;;;;0.77;0.77;;;;;;;;;;4145827;28;20135;-64
2023/10/01 09:34:53;;;;;;;0.70;0.70;;;;;;;;;;4139372;28;20049;-64
2023/10/01 09:36:56;;;;;;;0.70;0.70;;;;;;;;;;4142886;28;20045;-64
2023/10/01 09:39:03;;;;;;;2.33;0.80;;;;;;;;;;4140354;28;20048;-63
2023/10/01 09:41:19;;;;;;;1.83;0.70;;;;;;;;;;4145302;28;20828;-63
2023/10/01 09:43:27;;;;;;;0.70;0.70;;;;;;;;;;4143938;28;20046;-63
2023/10/01 09:45:30;;;;;;;0.70;0.70;;;;;;;;;;4147838;28;20046;-63
2023/10/01 09:47:32;;;;;;;0.70;0.70;;;;;;;;;;4142527;28;20565;-63
2023/10/01 09:49:34;;;;;;;;;;;;;;;;;;4146548;28;20030;-63
2023/10/01 09:51:41;;;;;;;0.70;0.70;;;;;;;;;;4144692;28;20024;-63
2023/10/01 09:53:48;;;;;;;0.63;0.63;;;;;;;;;;4146487;28;20034;-63
2023/10/01 09:55:55;;;;;;;0.60;0.60;;;;;;;;;;4142435;28;20041;-63
2023/10/01 09:57:57;;;;;;;1.38;0.70;;;;;;;;;;4139946;28;20443;-63
2023/10/01 10:00:14;;;;;;;1.42;0.60;;;;;;;;;;4147692;28;20506;-63
2023/10/01 10:02:27;;;;;;;4.13;0.70;;;;;;;;;;4139598;28;20089;-63
2023/10/01 10:04:34;;;;;;;0.88;0.88;;;;;;;;;;4146029;28;20527;-63
2023/10/01 10:06:38;;;;;;;0.70;0.70;;;;;;;;;;4137868;28;20085;-62
2023/10/01 10:08:40;;;;;;;1.02;0.70;;;;;;;;;;4138185;28;20045;-63
2023/10/01 10:10:48;;;;;;;0.82;0.60;;;;;;;;;;4142353;28;20054;-64
2023/10/01 10:12:56;;;;;;;0.60;0.60;;;;;;;;;;4144784;28;20112;-64
2023/10/01 10:14:58;;;;;;;0.60;0.60;;;;;;;;;;4146144;28;20038;-64
2023/10/01 10:17:01;;;;;;;1.50;0.60;;;;;;;;;;4139481;28;20058;-63
2023/10/01 10:19:13;;;;;;;0.60;0.60;;;;;;;;;;4144469;28;20037;-63
2023/10/01 10:21:15;;;;;;;;;;;;;;;;;;4139213;28;20049;-63
2023/10/01 10:23:21;;;;;;;0.50;0.50;;;;;;;;;;4145401;28;19928;-63
2023/10/01 10:25:25;;;;;;;1.33;0.50;;;;;;;;;;4131297;28;20069;-63
2023/10/01 10:27:33;;;;;;;0.50;0.50;;;;;;;;;;4136776;28;20402;-63
2023/10/01 10:29:46;;;;;;;0.60;0.60;;;;;;;;;;4141097;28;20184;-64
2023/10/01 10:32:09;;;;;;;2.92;0.60;;;;;;;;;;4139925;28;20387;-64
2023/10/01 10:34:22;;;;;;;0.50;0.50;;;;;;;;;;4146685;28;20041;-63
2023/10/01 10:36:33;;;;;;;0.60;0.60;;;;;;;;;;4145706;28;20049;-63
2023/10/01 10:38:51;;;;;;;1.38;0.60;;;;;;;;;;4139524;28;20054;-64
2023/10/01 10:41:05;;;;;;;1.63;0.60;;;;;;;;;;4135125;28;20077;-63
2023/10/01 10:43:07;;;;;;;2.65;0.60;;;;;;;;;;4140435;28;20088;-64
2023/10/01 10:47:26;;;;;;;4.68;0.60;;;;;;;;;;4139581;28;20042;-63
2023/10/01 10:49:48;;;;;;;0.60;0.60;;;;;;;;;;4141272;28;20038;-63
2023/10/01 10:51:50;;;;;;;0.60;0.60;;;;;;;;;;4145298;28;20042;-63
2023/10/01 10:53:58;;;;;;;0.60;0.60;;;;;;;;;;4142030;28;20033;-63
2023/10/01 10:56:00;;;;;;;0.95;0.55;;;;;;;;;;4145740;28;20038;-63
2023/10/01 10:58:12;;;;;;;0.50;0.50;;;;;;;;;;4147348;28;20108;-63
2023/10/01 11:00:24;;;;;;;0.50;0.50;;;;;;;;;;4147390;28;20052;-63
2023/10/01 11:02:25;;;;;;;0.40;0.40;;;;;;;;;;4144735;28;20049;-63
2023/10/01 11:04:30;;;;;;;1.08;0.40;;;;;;;;;;4142874;28;20124;-63
2023/10/01 11:07:01;;;;;;;2.08;0.50;;;;;;;;;;4147363;28;20077;-63
2023/10/01 11:09:22;;;;;;;0.50;0.50;;;;;;;;;;4147404;28;20042;-63
2023/10/01 11:11:25;;;;;;;0.50;0.50;;;;;;;;;;4147328;28;20064;-64
2023/10/01 11:13:45;;;;;;;0.43;0.43;;;;;;;;;;4151904;28;20440;-63
2023/10/01 11:15:47;;;;;;;0.50;0.50;;;;;;;;;;4163536;28;20120;-63
2023/10/01 11:17:58;;;;;;;0.50;0.50;;;;;;;;;;4164427;28;20045;-64
2023/10/01 11:19:59;;;;;;;0.50;0.50;;;;;;;;;;4152429;28;20045;-63
2023/10/01 11:22:05;;;;;;;0.60;0.60;;;;;;;;;;4150448;28;20049;-64
2023/10/01 11:24:07;;;;;;;0.40;0.40;;;;;;;;;;4149227;28;20457;-63
2023/10/01 11:26:26;;;;;;;;;;;;;;;;;;4150583;28;20053;-64
2023/10/01 11:28:41;;;;;;;0.50;0.50;;;;;;;;;;4147264;28;19921;-63
2023/10/01 11:30:43;;;;;;;0.50;0.50;;;;;;;;;;4148721;28;20043;-64
2023/10/01 11:35:28;;;;;;;1.25;0.40;;;;;;;;;;4134033;28;20046;-63
2023/10/01 11:37:30;;;;;;;0.50;0.50;;;;;;;;;;4146125;28;20038;-64
2023/10/01 11:39:49;;;;;;;;;;;;;;;;;;4150153;28;20045;-63
2023/10/01 11:41:54;;;;;;;0.50;0.50;;;;;;;;;;4149986;28;19926;-64
2023/10/01 11:43:59;;;;;;;0.50;0.50;;;;;;;;;;4149757;28;20758;-63
2023/10/01 11:46:19;;;;;;;1.17;0.50;;;;;;;;;;4149688;28;20418;-64
2023/10/01 11:48:32;;;;;;;0.43;0.43;;;;;;;;;;4149998;28;20065;-63
2023/10/01 11:50:51;;;;;;;0.52;0.47;;;;;;;;;;4149706;28;20096;-63
2023/10/01 11:53:05;;;;;;;0.65;0.50;;;;;;;;;;4149929;28;20041;-63
2023/10/01 11:55:19;;;;;;;0.55;0.50;;;;;;;;;;4149697;28;20053;-63
2023/10/01 11:57:22;;;;;;;0.40;0.40;;;;;;;;;;4149979;28;20050;-64
2023/10/01 11:59:25;;;;;;;0.40;0.40;;;;;;;;;;4149657;28;20041;-64
2023/10/01 12:01:38;;;;;;;1.42;0.40;;;;;;;;;;4149405;28;20406;-65
2023/10/01 12:03:40;;;;;;;1.13;0.50;;;;;;;;;;4149688;28;20041;-63
2023/10/01 12:05:46;;;;;;;;;;;;;;;;;;4148348;28;20461;-64
2023/10/01 12:07:49;;;;;;;0.40;0.40;;;;;;;;;;4149405;28;19952;-64
2023/10/01 12:09:52;;;;;;;1.48;0.50;;;;;;;;;;4144765;28;20482;-64
2023/10/01 12:12:04;;;;;;;0.50;0.50;;;;;;;;;;4148677;28;20030;-64
2023/10/01 12:14:06;;;;;;;0.50;0.50;;;;;;;;;;4148906;28;20510;-64
2023/10/01 12:16:07;;;;;;;0.60;0.50;;;;;;;;;;4143906;28;20461;-63
2023/10/01 12:18:15;;;;;;;;;;;;;;;;;;4143726;28;20050;-64
2023/10/01 12:20:28;;;;;;;0.40;0.40;;;;;;;;;;4149180;28;20270;-63
2023/10/01 12:22:30;;;;;;;0.40;0.40;;;;;;;;;;4149323;28;20038;-63
2023/10/01 12:24:39;;;;;;;;;;;;;;;;;;4149954;28;20052;-64
2023/10/01 12:26:43;;;;;;;0.40;0.40;;;;;;;;;;4149302;28;20332;-64
2023/10/01 12:29:11;;;;;;;1.40;0.50;;;;;;;;;;4148907;28;20108;-64
2023/10/01 12:31:09;;;;;;;0.40;0.40;;;;;;;;;;4148928;28;20042;-63
2023/10/01 12:33:11;;;;;;;0.47;0.47;;;;;;;;;;4149137;28;20046;-64
2023/10/01 12:35:20;;;;;;;;;;;;;;;;;;4149570;28;20041;-63
2023/10/01 12:37:37;;;;;;;0.40;0.40;;;;;;;;;;4147878;28;20400;-64
2023/10/01 12:39:39;;;;;;;6.03;0.50;;;;;;;;;;4148684;28;20052;-64
2023/10/01 12:41:48;;;;;;;0.50;0.50;;;;;;;;;;4149083;28;20080;-64
2023/10/01 12:43:50;;;;;;;0.40;0.40;;;;;;;;;;4147850;28;20104;-63
2023/10/01 12:45:51;;;;;;;;;;;;;;;;;;4149434;28;20100;-63
2023/10/01 12:47:54;;;;;;;0.40;0.40;;;;;;;;;;4148885;28;19929;-63
2023/10/01 12:49:58;;;;;;;0.82;0.43;;;;;;;;;;4148882;28;20433;-63
2023/10/01 12:52:02;;;;;;;0.30;0.30;;;;;;;;;;4149106;28;20038;-64
2023/10/01 12:54:06;;;;;;;0.40;0.40;;;;;;;;;;4148737;28;20049;-64
2023/10/01 12:56:10;;;;;;;0.60;0.40;;;;;;;;;;4148771;28;20092;-64
2023/10/01 12:58:11;;;;;;;;;;;;;;;;;;4149028;28;20042;-64
2023/10/01 13:00:23;;;;;;;1.25;0.40;;;;;;;;;;4141337;28;19929;-63
2023/10/01 13:04:32;;;;;;;0.40;0.40;;;;;;;;;;4133441;28;20069;-64